Time;durP1;ratioP1;P1;durP2;ratioP2;P2;SDS_P1;SDS_P2;PMS_P1;PMS_P2;Temp;Humidity;BMP_temperature;BMP_pressure;BME280_temperature;BME280_humidity;BME280_pressure;Samples;Min_cycle;Max_cycle;Signal;HPM_P1;HPM_P2
2021/10/10 00:01:36;;;;;;;13.18;8.43;;;;;;;;;;4978192;28;20401;-73
2021/10/10 00:04:01;;;;;;;10.53;7.67;;;;;;;;;;4994115;28;20503;-73
2021/10/10 00:06:26;;;;;;;12.77;8.33;;;;;;;;;;4994126;28;20400;-73
2021/10/10 00:08:51;;;;;;;13.40;8.17;;;;;;;;;;4989110;28;20065;-73
2021/10/10 00:11:17;;;;;;;11.17;7.47;;;;;;;;;;4977524;28;20061;-73
2021/10/10 00:13:42;;;;;;;11.77;7.07;;;;;;;;;;4995631;28;20076;-73
2021/10/10 00:16:07;;;;;;;13.37;8.20;;;;;;;;;;4995243;28;20410;-74
2021/10/10 00:18:32;;;;;;;13.37;8.07;;;;;;;;;;4993957;28;20396;-73
2021/10/10 00:20:57;;;;;;;12.57;8.70;;;;;;;;;;4995325;28;20034;-74
2021/10/10 00:23:22;;;;;;;11.87;8.07;;;;;;;;;;4993769;28;20026;-73
2021/10/10 00:25:48;;;;;;;10.67;7.83;;;;;;;;;;4991842;28;20026;-72
2021/10/10 00:28:13;;;;;;;11.47;7.63;;;;;;;;;;4994860;28;20035;-72
2021/10/10 00:30:38;;;;;;;11.67;7.53;;;;;;;;;;4977406;28;20018;-72
2021/10/10 00:33:03;;;;;;;11.10;7.53;;;;;;;;;;4995105;28;20030;-72
2021/10/10 00:35:30;;;;;;;11.97;7.83;;;;;;;;;;4994684;28;20109;-73
2021/10/10 00:37:55;;;;;;;10.07;7.10;;;;;;;;;;4994278;28;20546;-74
2021/10/10 00:40:20;;;;;;;12.83;7.67;;;;;;;;;;4994673;28;20019;-74
2021/10/10 00:42:45;;;;;;;11.73;7.57;;;;;;;;;;4993323;28;20026;-73
2021/10/10 00:45:11;;;;;;;10.23;7.60;;;;;;;;;;4993679;28;20030;-72
2021/10/10 00:47:37;;;;;;;12.60;7.67;;;;;;;;;;4993967;28;20022;-73
2021/10/10 00:50:02;;;;;;;11.80;7.70;;;;;;;;;;4996676;28;20445;-73
2021/10/10 00:52:28;;;;;;;13.80;7.50;;;;;;;;;;4995323;28;20129;-73
2021/10/10 00:54:54;;;;;;;12.07;7.63;;;;;;;;;;4992164;28;20022;-73
2021/10/10 00:57:20;;;;;;;9.97;7.10;;;;;;;;;;4992337;28;20056;-73
2021/10/10 00:59:45;;;;;;;12.93;7.63;;;;;;;;;;4994074;28;20072;-72
2021/10/10 01:02:15;;;;;;;12.13;7.07;;;;;;;;;;4994559;28;20061;-73
2021/10/10 01:04:40;;;;;;;11.87;7.40;;;;;;;;;;4992838;28;20580;-73
2021/10/10 01:07:06;;;;;;;12.47;7.63;;;;;;;;;;4981528;28;20071;-74
2021/10/10 01:09:31;;;;;;;9.37;6.63;;;;;;;;;;4993469;28;20481;-74
2021/10/10 01:11:56;;;;;;;10.73;7.93;;;;;;;;;;4977251;28;20469;-74
2021/10/10 01:14:23;;;;;;;8.77;6.67;;;;;;;;;;4994599;28;20095;-74
2021/10/10 01:16:48;;;;;;;10.90;6.33;;;;;;;;;;4993255;28;20026;-73
2021/10/10 01:19:13;;;;;;;11.27;7.30;;;;;;;;;;4992348;28;20033;-74
2021/10/10 01:21:38;;;;;;;9.77;7.40;;;;;;;;;;4992910;28;20023;-74
2021/10/10 01:24:04;;;;;;;12.37;7.27;;;;;;;;;;4992947;28;20026;-74
2021/10/10 01:26:30;;;;;;;11.17;6.90;;;;;;;;;;4992225;28;20026;-74
2021/10/10 01:28:55;;;;;;;11.23;6.90;;;;;;;;;;4993754;28;20028;-73
2021/10/10 01:31:20;;;;;;;9.23;6.37;;;;;;;;;;4992737;28;20058;-74
2021/10/10 01:33:45;;;;;;;10.57;6.80;;;;;;;;;;4993804;28;20030;-73
2021/10/10 01:36:11;;;;;;;11.13;7.10;;;;;;;;;;4992300;28;20113;-74
2021/10/10 01:38:36;;;;;;;10.00;6.63;;;;;;;;;;4975708;28;20026;-74
2021/10/10 01:41:02;;;;;;;9.90;6.50;;;;;;;;;;4976068;28;20512;-74
2021/10/10 01:43:27;;;;;;;10.60;6.57;;;;;;;;;;4994001;28;20023;-72
2021/10/10 01:45:53;;;;;;;10.07;6.70;;;;;;;;;;4993841;28;20026;-72
2021/10/10 01:48:18;;;;;;;13.10;7.07;;;;;;;;;;4993248;28;20108;-73
2021/10/10 01:50:43;;;;;;;12.13;7.03;;;;;;;;;;4993516;28;20030;-73
2021/10/10 01:53:08;;;;;;;13.17;6.83;;;;;;;;;;4991412;28;20026;-73
2021/10/10 01:55:34;;;;;;;10.70;6.43;;;;;;;;;;4989926;28;20061;-71
2021/10/10 01:57:59;;;;;;;13.53;7.57;;;;;;;;;;5010582;28;20076;-73
2021/10/10 02:00:25;;;;;;;11.00;7.33;;;;;;;;;;5012572;28;20499;-72
2021/10/10 02:02:50;;;;;;;9.77;6.63;;;;;;;;;;4995221;28;20018;-73
2021/10/10 02:05:15;;;;;;;10.30;6.73;;;;;;;;;;4995206;28;20026;-73
2021/10/10 02:07:40;;;;;;;11.63;7.73;;;;;;;;;;5012489;28;20214;-73
2021/10/10 02:10:07;;;;;;;10.47;7.17;;;;;;;;;;4993779;28;20037;-73
2021/10/10 02:12:32;;;;;;;11.70;7.63;;;;;;;;;;4994634;28;20373;-73
2021/10/10 02:14:57;;;;;;;10.20;7.37;;;;;;;;;;5012944;28;20037;-73
2021/10/10 02:17:22;;;;;;;11.70;7.17;;;;;;;;;;5012384;28;20106;-73
2021/10/10 02:19:47;;;;;;;9.17;6.47;;;;;;;;;;4978866;28;20127;-73
2021/10/10 02:22:13;;;;;;;9.30;6.60;;;;;;;;;;5012090;28;20026;-73
2021/10/10 02:24:38;;;;;;;12.20;7.37;;;;;;;;;;4992899;28;20034;-73
2021/10/10 02:27:03;;;;;;;10.93;7.33;;;;;;;;;;4994133;28;20018;-73
2021/10/10 02:29:30;;;;;;;10.57;7.57;;;;;;;;;;5012443;28;20381;-73
2021/10/10 02:31:55;;;;;;;11.87;7.27;;;;;;;;;;5004489;28;20057;-73
2021/10/10 02:34:21;;;;;;;9.67;7.23;;;;;;;;;;5012727;28;20031;-73
2021/10/10 02:36:46;;;;;;;12.27;7.80;;;;;;;;;;5012317;28;20025;-73
2021/10/10 02:39:11;;;;;;;11.23;7.80;;;;;;;;;;5012232;28;20034;-73
2021/10/10 02:41:36;;;;;;;12.37;7.50;;;;;;;;;;4977444;28;20037;-73
2021/10/10 02:44:02;;;;;;;13.23;7.80;;;;;;;;;;4994513;28;20052;-73
2021/10/10 02:46:28;;;;;;;11.87;7.57;;;;;;;;;;5012581;28;20018;-74
2021/10/10 02:48:53;;;;;;;13.30;7.87;;;;;;;;;;5011383;28;20033;-74
2021/10/10 02:51:18;;;;;;;9.00;6.90;;;;;;;;;;5011971;28;20018;-74
2021/10/10 02:53:43;;;;;;;10.20;6.67;;;;;;;;;;4993904;28;20045;-74
2021/10/10 02:56:08;;;;;;;11.17;7.03;;;;;;;;;;4989012;28;20029;-74
2021/10/10 02:58:34;;;;;;;10.53;6.63;;;;;;;;;;5002712;28;20103;-74
2021/10/10 03:00:59;;;;;;;9.27;6.70;;;;;;;;;;5011814;28;20038;-74
2021/10/10 03:03:24;;;;;;;10.30;6.90;;;;;;;;;;4994262;28;20020;-74
2021/10/10 03:05:50;;;;;;;11.03;7.03;;;;;;;;;;4975162;28;20022;-72
2021/10/10 03:08:15;;;;;;;12.10;7.10;;;;;;;;;;4997453;28;20048;-73
2021/10/10 03:10:40;;;;;;;9.77;6.87;;;;;;;;;;4993697;28;20435;-73
2021/10/10 03:13:06;;;;;;;11.53;7.33;;;;;;;;;;5012396;28;20022;-74
2021/10/10 03:15:31;;;;;;;11.70;7.43;;;;;;;;;;5011600;28;20030;-73
2021/10/10 03:17:56;;;;;;;10.70;7.13;;;;;;;;;;4994126;28;20132;-73
2021/10/10 03:20:21;;;;;;;9.63;6.93;;;;;;;;;;4992995;28;20068;-73
2021/10/10 03:22:47;;;;;;;10.40;6.87;;;;;;;;;;4977910;28;20473;-73
2021/10/10 03:25:12;;;;;;;10.43;7.33;;;;;;;;;;4997457;28;20076;-74
2021/10/10 03:27:37;;;;;;;9.93;7.13;;;;;;;;;;5025768;28;20018;-74
2021/10/10 03:30:03;;;;;;;10.57;6.73;;;;;;;;;;4993922;28;20441;-73
2021/10/10 03:32:28;;;;;;;13.13;7.30;;;;;;;;;;4994017;28;20084;-73
2021/10/10 03:34:53;;;;;;;9.77;7.07;;;;;;;;;;4994142;28;20022;-73
2021/10/10 03:37:18;;;;;;;11.60;7.43;;;;;;;;;;4977447;28;20120;-73
2021/10/10 03:39:43;;;;;;;12.77;7.77;;;;;;;;;;4992987;28;20030;-73
2021/10/10 03:42:08;;;;;;;11.27;7.00;;;;;;;;;;4994054;28;20037;-72
2021/10/10 03:44:34;;;;;;;12.93;7.80;;;;;;;;;;5011661;28;20053;-73
2021/10/10 03:46:59;;;;;;;13.00;7.93;;;;;;;;;;4993821;28;20030;-74
2021/10/10 03:49:24;;;;;;;15.47;7.67;;;;;;;;;;5011543;28;20101;-73
2021/10/10 03:51:50;;;;;;;10.53;7.73;;;;;;;;;;5010835;28;20022;-72
2021/10/10 03:56:50;;;;;;;12.53;7.90;;;;;;;;;;5011766;28;20061;-74
2021/10/10 03:59:15;;;;;;;10.17;7.37;;;;;;;;;;4993769;28;20269;-73
2021/10/10 04:01:41;;;;;;;11.53;6.53;;;;;;;;;;4993713;28;20025;-73
2021/10/10 04:04:07;;;;;;;11.10;6.80;;;;;;;;;;4993782;28;20487;-73
2021/10/10 04:06:32;;;;;;;14.33;7.37;;;;;;;;;;4993616;28;20018;-73
2021/10/10 04:08:57;;;;;;;11.67;7.30;;;;;;;;;;5011037;28;20033;-73
2021/10/10 04:11:22;;;;;;;11.30;7.20;;;;;;;;;;5010122;28;20073;-73
2021/10/10 04:13:48;;;;;;;10.67;6.87;;;;;;;;;;5011548;28;20470;-73
2021/10/10 04:16:13;;;;;;;11.17;6.83;;;;;;;;;;4994000;28;20697;-73
2021/10/10 04:18:38;;;;;;;11.10;7.47;;;;;;;;;;5011161;28;20108;-73
2021/10/10 04:21:04;;;;;;;11.00;6.60;;;;;;;;;;4993425;28;20040;-73
2021/10/10 04:23:29;;;;;;;11.77;7.33;;;;;;;;;;4993666;28;20396;-73
2021/10/10 04:25:55;;;;;;;9.17;7.00;;;;;;;;;;5018268;28;20033;-73
2021/10/10 04:28:20;;;;;;;10.23;6.87;;;;;;;;;;5018761;28;20022;-73
2021/10/10 04:30:45;;;;;;;13.97;8.53;;;;;;;;;;4993284;28;20064;-73
2021/10/10 04:33:10;;;;;;;9.60;7.50;;;;;;;;;;5013634;28;20388;-73
2021/10/10 04:35:35;;;;;;;11.40;8.03;;;;;;;;;;4997901;28;20526;-73
2021/10/10 04:38:01;;;;;;;11.57;7.47;;;;;;;;;;5014343;28;20100;-74
2021/10/10 04:40:26;;;;;;;9.93;6.50;;;;;;;;;;5013590;28;20026;-73
2021/10/10 04:42:51;;;;;;;11.23;7.20;;;;;;;;;;5013607;28;20029;-74
2021/10/10 04:45:16;;;;;;;14.60;8.77;;;;;;;;;;4996898;28;20030;-73
2021/10/10 04:47:41;;;;;;;11.97;7.53;;;;;;;;;;4997199;28;20534;-74
2021/10/10 04:50:07;;;;;;;10.53;7.90;;;;;;;;;;5014320;28;20079;-74
2021/10/10 04:52:32;;;;;;;14.47;10.70;;;;;;;;;;5013923;28;20030;-73
2021/10/10 04:54:57;;;;;;;21.00;15.13;;;;;;;;;;5013486;28;20026;-73
2021/10/10 04:57:23;;;;;;;26.00;21.00;;;;;;;;;;4993118;28;20118;-72
2021/10/10 04:59:51;;;;;;;26.97;21.37;;;;;;;;;;4993137;28;20190;-72
2021/10/10 05:02:17;;;;;;;30.13;22.93;;;;;;;;;;4990689;28;20509;-73
2021/10/10 05:04:43;;;;;;;29.20;22.37;;;;;;;;;;4993805;28;20026;-73
2021/10/10 05:07:08;;;;;;;32.67;22.17;;;;;;;;;;4993369;28;20022;-73
2021/10/10 05:09:33;;;;;;;27.87;21.13;;;;;;;;;;4993908;28;20018;-73
2021/10/10 05:11:58;;;;;;;25.87;19.83;;;;;;;;;;4994013;28;20168;-73
2021/10/10 05:14:23;;;;;;;29.10;19.50;;;;;;;;;;4992653;28;20038;-73
2021/10/10 05:16:49;;;;;;;31.40;19.00;;;;;;;;;;4994393;28;20030;-73
2021/10/10 05:19:14;;;;;;;26.27;18.33;;;;;;;;;;4977411;28;20373;-73
2021/10/10 05:21:39;;;;;;;24.63;16.33;;;;;;;;;;4994027;28;20045;-73
2021/10/10 05:24:04;;;;;;;25.43;16.77;;;;;;;;;;4978799;28;20031;-73
2021/10/10 05:26:29;;;;;;;29.63;17.83;;;;;;;;;;4983122;28;20105;-73
2021/10/10 05:28:55;;;;;;;28.33;16.87;;;;;;;;;;4993737;28;20014;-73
2021/10/10 05:31:20;;;;;;;26.77;17.30;;;;;;;;;;4992032;28;20030;-73
2021/10/10 05:33:45;;;;;;;27.47;17.87;;;;;;;;;;4979201;28;20018;-73
2021/10/10 05:36:10;;;;;;;28.57;16.87;;;;;;;;;;4992081;28;20321;-73
2021/10/10 05:38:35;;;;;;;30.03;17.93;;;;;;;;;;4988049;28;20067;-73
2021/10/10 05:41:02;;;;;;;30.83;17.50;;;;;;;;;;4973964;28;20125;-73
2021/10/10 05:43:27;;;;;;;29.87;16.07;;;;;;;;;;4986143;28;20105;-73
2021/10/10 05:45:52;;;;;;;26.23;15.93;;;;;;;;;;4993483;28;20153;-73
2021/10/10 05:48:17;;;;;;;26.67;15.83;;;;;;;;;;4992991;28;20030;-72
2021/10/10 05:50:42;;;;;;;24.67;14.40;;;;;;;;;;4990730;28;20511;-72
2021/10/10 05:53:08;;;;;;;22.80;12.83;;;;;;;;;;4991743;28;20026;-71
2021/10/10 05:55:34;;;;;;;20.57;11.07;;;;;;;;;;4984276;28;20393;-72
2021/10/10 05:58:03;;;;;;;17.97;11.60;;;;;;;;;;5012216;28;20500;-72
2021/10/10 06:00:28;;;;;;;20.00;11.70;;;;;;;;;;5012870;28;20104;-72
2021/10/10 06:02:53;;;;;;;18.50;10.63;;;;;;;;;;5012370;28;20018;-72
2021/10/10 06:05:18;;;;;;;17.53;11.47;;;;;;;;;;4995155;28;20030;-72
2021/10/10 06:07:44;;;;;;;21.53;12.13;;;;;;;;;;5012826;28;20531;-72
2021/10/10 06:10:09;;;;;;;20.30;13.63;;;;;;;;;;4994886;28;20034;-70
2021/10/10 06:12:35;;;;;;;19.43;12.00;;;;;;;;;;5012740;28;20026;-71
2021/10/10 06:15:01;;;;;;;15.60;10.77;;;;;;;;;;4994080;28;20025;-70
2021/10/10 06:17:26;;;;;;;16.47;9.67;;;;;;;;;;4994513;28;20034;-69
2021/10/10 06:19:52;;;;;;;16.57;10.27;;;;;;;;;;4994645;28;20041;-70
2021/10/10 06:22:17;;;;;;;16.20;10.27;;;;;;;;;;5012176;28;20052;-72
2021/10/10 06:24:42;;;;;;;17.33;10.90;;;;;;;;;;5010727;28;20483;-71
2021/10/10 06:27:07;;;;;;;21.40;12.77;;;;;;;;;;4995985;28;20026;-70
2021/10/10 06:29:33;;;;;;;18.63;11.53;;;;;;;;;;4980452;28;20037;-70
2021/10/10 06:31:58;;;;;;;18.63;11.83;;;;;;;;;;5003218;28;20088;-73
2021/10/10 06:34:23;;;;;;;20.27;11.37;;;;;;;;;;5012137;28;20061;-74
2021/10/10 06:36:48;;;;;;;19.50;13.37;;;;;;;;;;5011538;28;20021;-72
2021/10/10 06:39:15;;;;;;;15.97;10.23;;;;;;;;;;4976984;28;20034;-73
2021/10/10 06:41:41;;;;;;;14.07;8.93;;;;;;;;;;4994185;28;20435;-71
2021/10/10 06:44:08;;;;;;;14.73;9.13;;;;;;;;;;5011975;28;20017;-73
2021/10/10 06:46:33;;;;;;;13.27;9.03;;;;;;;;;;4993309;28;20030;-73
2021/10/10 06:48:58;;;;;;;15.37;9.87;;;;;;;;;;5010808;28;20018;-71
2021/10/10 06:51:23;;;;;;;15.37;9.30;;;;;;;;;;5021894;28;20142;-72
2021/10/10 06:53:49;;;;;;;16.40;9.60;;;;;;;;;;5011056;28;20022;-73
2021/10/10 06:56:14;;;;;;;14.03;9.47;;;;;;;;;;4992104;28;20057;-73
2021/10/10 06:58:39;;;;;;;13.90;8.97;;;;;;;;;;4995479;28;20087;-72
2021/10/10 07:01:04;;;;;;;14.57;8.53;;;;;;;;;;4993978;28;20491;-71
2021/10/10 07:03:29;;;;;;;12.87;8.07;;;;;;;;;;4993515;28;20032;-72
2021/10/10 07:05:55;;;;;;;14.77;8.07;;;;;;;;;;5011680;28;20022;-71
2021/10/10 07:08:20;;;;;;;14.97;8.10;;;;;;;;;;4993507;28;20070;-71
2021/10/10 07:10:45;;;;;;;14.33;8.20;;;;;;;;;;4993799;28;20034;-70
2021/10/10 07:13:10;;;;;;;13.33;8.73;;;;;;;;;;5010938;28;20029;-72
2021/10/10 07:15:36;;;;;;;14.70;9.10;;;;;;;;;;4997874;28;20034;-72
2021/10/10 07:18:04;;;;;;;14.20;8.47;;;;;;;;;;4977723;28;20439;-71
2021/10/10 07:20:57;;;;;;;12.43;7.80;;;;;;;;;;5011628;28;20029;-71
2021/10/10 07:23:32;;;;;;;13.77;8.48;;;;;;;;;;4982754;28;20017;-72
2021/10/10 07:25:58;;;;;;;12.68;7.72;;;;;;;;;;4983366;28;20069;-73
2021/10/10 07:28:23;;;;;;;13.57;7.45;;;;;;;;;;5010120;28;20030;-72
2021/10/10 07:30:48;;;;;;;13.35;8.00;;;;;;;;;;4993646;28;20033;-72
2021/10/10 07:33:14;;;;;;;12.15;7.65;;;;;;;;;;4993302;28;20030;-72
2021/10/10 07:35:39;;;;;;;11.73;7.80;;;;;;;;;;5012093;28;20053;-72
2021/10/10 07:38:05;;;;;;;12.52;7.47;;;;;;;;;;5025250;28;20054;-71
2021/10/10 07:40:30;;;;;;;11.90;7.75;;;;;;;;;;5010193;28;20233;-71
2021/10/10 07:42:55;;;;;;;12.25;7.60;;;;;;;;;;4976664;28;20384;-70
2021/10/10 07:45:23;;;;;;;13.68;7.72;;;;;;;;;;5010294;28;20403;-74
2021/10/10 07:47:50;;;;;;;10.70;7.55;;;;;;;;;;5013211;28;20037;-70
2021/10/10 07:50:16;;;;;;;12.52;7.35;;;;;;;;;;5010041;28;20060;-69
2021/10/10 07:52:41;;;;;;;11.82;7.75;;;;;;;;;;5011211;28;20480;-69
2021/10/10 07:55:08;;;;;;;12.05;7.90;;;;;;;;;;4990256;28;20129;-70
2021/10/10 07:57:33;;;;;;;13.43;8.25;;;;;;;;;;5010804;28;20049;-70
2021/10/10 07:59:58;;;;;;;12.23;8.45;;;;;;;;;;5010723;28;20032;-71
2021/10/10 08:02:26;;;;;;;11.13;8.75;;;;;;;;;;5010407;28;20118;-70
2021/10/10 08:04:51;;;;;;;12.40;8.10;;;;;;;;;;4977554;28;20022;-71
2021/10/10 08:07:16;;;;;;;15.55;7.05;;;;;;;;;;5009837;28;20097;-70
2021/10/10 08:09:42;;;;;;;7.93;6.18;;;;;;;;;;4977168;28;20042;-70
2021/10/10 08:12:07;;;;;;;11.65;6.90;;;;;;;;;;4995664;28;20057;-70
2021/10/10 08:14:32;;;;;;;12.18;7.05;;;;;;;;;;4996697;28;20026;-71
2021/10/10 08:16:58;;;;;;;11.40;6.82;;;;;;;;;;5015811;28;20049;-70
2021/10/10 08:19:23;;;;;;;13.43;7.53;;;;;;;;;;5015002;28;20033;-69
2021/10/10 08:21:49;;;;;;;8.65;6.43;;;;;;;;;;5007006;28;20067;-71
2021/10/10 08:24:16;;;;;;;12.40;6.32;;;;;;;;;;5010797;28;20026;-70
2021/10/10 08:26:42;;;;;;;8.88;5.45;;;;;;;;;;5009723;28;20026;-70
2021/10/10 08:29:07;;;;;;;9.43;6.00;;;;;;;;;;5013401;28;20060;-70
2021/10/10 08:31:32;;;;;;;11.30;5.65;;;;;;;;;;5013362;28;20120;-71
2021/10/10 08:33:57;;;;;;;9.90;5.75;;;;;;;;;;4992376;28;20029;-70
2021/10/10 08:36:22;;;;;;;9.00;5.18;;;;;;;;;;4996058;28;20018;-70
2021/10/10 08:38:48;;;;;;;8.93;5.75;;;;;;;;;;4988130;28;20432;-70
2021/10/10 08:41:15;;;;;;;7.38;5.45;;;;;;;;;;4991475;28;20034;-70
2021/10/10 08:43:44;;;;;;;7.97;4.95;;;;;;;;;;5008427;28;20022;-71
2021/10/10 08:46:12;;;;;;;8.38;5.35;;;;;;;;;;5012901;28;20097;-69
2021/10/10 08:48:37;;;;;;;7.97;4.85;;;;;;;;;;5013515;28;20470;-70
2021/10/10 08:51:02;;;;;;;8.75;4.68;;;;;;;;;;5010962;28;20061;-70
2021/10/10 08:53:27;;;;;;;6.82;4.10;;;;;;;;;;5001023;28;20022;-70
2021/10/10 08:55:53;;;;;;;5.88;4.20;;;;;;;;;;4973719;28;20029;-71
2021/10/10 08:58:22;;;;;;;9.15;4.25;;;;;;;;;;4986221;28;20056;-70
2021/10/10 09:00:49;;;;;;;7.97;4.45;;;;;;;;;;5003398;28;20029;-70
2021/10/10 09:03:16;;;;;;;6.13;4.20;;;;;;;;;;4998321;28;20109;-70
2021/10/10 09:05:41;;;;;;;9.40;4.15;;;;;;;;;;4990215;28;20091;-69
2021/10/10 09:08:06;;;;;;;6.35;4.07;;;;;;;;;;5011890;28;20493;-70
2021/10/10 09:10:32;;;;;;;7.40;4.50;;;;;;;;;;4978454;28;20064;-69
2021/10/10 09:13:06;;;;;;;7.75;3.63;;;;;;;;;;5014223;28;20109;-71
2021/10/10 09:15:32;;;;;;;7.55;4.05;;;;;;;;;;5006295;28;20094;-70
2021/10/10 09:17:58;;;;;;;5.90;4.05;;;;;;;;;;5012843;28;20117;-70
2021/10/10 09:20:35;;;;;;;4.35;3.13;;;;;;;;;;4992121;28;20029;-70
2021/10/10 09:23:01;;;;;;;7.53;3.75;;;;;;;;;;5013102;28;20040;-70
2021/10/10 09:25:26;;;;;;;7.78;3.90;;;;;;;;;;5002317;28;20018;-69
2021/10/10 09:27:52;;;;;;;6.55;3.97;;;;;;;;;;4994189;28;20095;-69
2021/10/10 09:30:21;;;;;;;6.28;4.18;;;;;;;;;;4994151;28;20388;-70
2021/10/10 09:32:47;;;;;;;6.63;3.90;;;;;;;;;;5012660;28;20096;-72
2021/10/10 09:35:27;;;;;;;6.88;4.47;;;;;;;;;;5012657;28;20113;-70
2021/10/10 09:38:17;;;;;;;8.18;5.07;;;;;;;;;;4988525;28;20022;-70
2021/10/10 09:40:51;;;;;;;6.65;4.20;;;;;;;;;;4986772;28;20038;-70
2021/10/10 09:43:16;;;;;;;6.93;4.43;;;;;;;;;;4998607;28;20018;-70
2021/10/10 09:45:53;;;;;;;6.15;4.07;;;;;;;;;;5011750;28;20475;-69
2021/10/10 09:48:29;;;;;;;8.75;4.65;;;;;;;;;;5010790;28;20022;-69
2021/10/10 09:50:54;;;;;;;8.95;4.68;;;;;;;;;;4985432;28;20018;-70
2021/10/10 09:53:27;;;;;;;8.65;4.18;;;;;;;;;;5011723;28;20030;-70
2021/10/10 09:55:54;;;;;;;7.20;4.20;;;;;;;;;;5008953;28;20040;-69
2021/10/10 09:58:37;;;;;;;6.45;4.05;;;;;;;;;;4976929;28;20093;-70
2021/10/10 10:01:13;;;;;;;6.28;4.18;;;;;;;;;;4975606;28;20421;-70
2021/10/10 10:04:13;;;;;;;7.22;5.57;;;;;;;;;;4974547;28;20110;-70
2021/10/10 10:06:39;;;;;;;6.10;4.07;;;;;;;;;;4912704;29;20035;-70
2021/10/10 10:09:05;;;;;;;6.45;3.97;;;;;;;;;;4907437;29;20023;-70
2021/10/10 10:11:35;;;;;;;4.85;4.10;;;;;;;;;;4906751;29;20088;-71
2021/10/10 10:14:01;;;;;;;7.47;3.90;;;;;;;;;;4912705;29;20490;-69
2021/10/10 10:16:27;;;;;;;5.40;3.72;;;;;;;;;;4897745;29;20020;-70
2021/10/10 10:18:52;;;;;;;5.20;3.42;;;;;;;;;;4915177;29;20534;-70
2021/10/10 10:21:18;;;;;;;4.95;3.42;;;;;;;;;;4913238;29;20400;-70
2021/10/10 10:23:44;;;;;;;5.88;3.67;;;;;;;;;;4897442;29;20032;-70
2021/10/10 10:26:09;;;;;;;3.55;3.15;;;;;;;;;;4895588;29;20028;-71
2021/10/10 10:28:35;;;;;;;4.18;3.50;;;;;;;;;;4913636;29;20625;-71
2021/10/10 10:31:01;;;;;;;3.63;3.08;;;;;;;;;;4899833;29;20042;-71
2021/10/10 10:33:30;;;;;;;5.40;3.33;;;;;;;;;;4891264;29;20044;-71
2021/10/10 10:35:55;;;;;;;4.13;3.42;;;;;;;;;;4896501;29;20027;-71
2021/10/10 10:38:40;;;;;;;4.53;3.00;;;;;;;;;;4913799;29;20067;-71
2021/10/10 10:41:05;;;;;;;;;;;;;;;;;;4957481;28;20335;-71
2021/10/10 10:43:35;;;;;;;5.07;3.67;;;;;;;;;;4992685;28;19913;-70
2021/10/10 10:46:07;;;;;;;3.40;2.85;;;;;;;;;;4990833;28;20137;-70
2021/10/10 10:48:36;;;;;;;4.15;2.83;;;;;;;;;;4954006;28;20117;-70
2021/10/10 10:51:24;;;;;;;5.07;3.45;;;;;;;;;;4986012;28;20038;-70
2021/10/10 10:53:49;;;;;;;4.20;2.90;;;;;;;;;;4982924;28;20046;-71
2021/10/10 10:56:25;;;;;;;5.25;2.72;;;;;;;;;;4963494;28;20069;-71
2021/10/10 10:58:53;;;;;;;3.55;2.90;;;;;;;;;;4990138;28;20029;-71
2021/10/10 11:01:18;;;;;;;4.30;2.88;;;;;;;;;;4995684;28;20045;-71
2021/10/10 11:03:43;;;;;;;5.57;2.73;;;;;;;;;;5005882;28;20108;-72
2021/10/10 11:06:09;;;;;;;5.07;3.80;;;;;;;;;;5009520;28;20352;-71
2021/10/10 11:08:38;;;;;;;4.22;3.10;;;;;;;;;;4995966;28;20477;-72
2021/10/10 11:11:04;;;;;;;5.22;3.00;;;;;;;;;;5012473;28;20115;-71
2021/10/10 11:13:35;;;;;;;4.83;2.93;;;;;;;;;;5012574;28;20089;-71
2021/10/10 11:16:07;;;;;;;4.40;3.45;;;;;;;;;;5010383;28;20027;-73
2021/10/10 11:18:33;;;;;;;3.30;3.00;;;;;;;;;;4993260;28;20083;-71
2021/10/10 11:21:03;;;;;;;5.05;2.80;;;;;;;;;;4981377;28;20507;-70
2021/10/10 11:23:28;;;;;;;3.95;2.80;;;;;;;;;;5011833;28;20530;-72
2021/10/10 11:25:55;;;;;;;4.95;2.90;;;;;;;;;;5007172;28;20017;-71
2021/10/10 11:28:39;;;;;;;3.40;2.63;;;;;;;;;;5010971;28;20391;-71
2021/10/10 11:31:25;;;;;;;3.85;3.13;;;;;;;;;;5007983;28;20094;-69
2021/10/10 11:33:59;;;;;;;3.75;3.17;;;;;;;;;;4992160;28;20147;-70
2021/10/10 11:36:33;;;;;;;4.25;3.20;;;;;;;;;;5011614;28;20032;-70
2021/10/10 11:38:59;;;;;;;4.10;2.92;;;;;;;;;;4989704;28;20026;-71
2021/10/10 11:41:25;;;;;;;4.22;2.85;;;;;;;;;;4995390;28;20088;-73
2021/10/10 11:43:55;;;;;;;4.60;3.60;;;;;;;;;;4997787;28;20116;-72
2021/10/10 11:46:20;;;;;;;3.45;3.08;;;;;;;;;;5016015;28;20507;-72
2021/10/10 11:48:48;;;;;;;4.55;3.10;;;;;;;;;;5015855;28;20056;-70
2021/10/10 11:51:27;;;;;;;3.47;3.17;;;;;;;;;;5004738;28;20036;-71
2021/10/10 11:53:53;;;;;;;3.45;3.15;;;;;;;;;;4998663;28;20535;-72
2021/10/10 11:56:18;;;;;;;4.45;2.78;;;;;;;;;;5001249;28;20181;-73
2021/10/10 11:58:43;;;;;;;4.55;2.97;;;;;;;;;;5017716;28;20112;-73
2021/10/10 12:01:12;;;;;;;3.37;2.83;;;;;;;;;;5003586;28;20103;-74
2021/10/10 12:03:41;;;;;;;8.23;3.70;;;;;;;;;;4990036;28;20013;-72
2021/10/10 12:06:14;;;;;;;3.63;3.17;;;;;;;;;;4988342;28;20038;-71
2021/10/10 12:08:40;;;;;;;4.13;2.95;;;;;;;;;;5014202;28;20464;-71
2021/10/10 12:11:08;;;;;;;5.13;3.23;;;;;;;;;;5013689;28;20044;-71
2021/10/10 12:13:35;;;;;;;4.32;3.13;;;;;;;;;;5015282;28;20041;-72
2021/10/10 12:16:01;;;;;;;4.00;2.92;;;;;;;;;;4995983;28;20038;-71
2021/10/10 12:18:27;;;;;;;3.92;3.05;;;;;;;;;;4997255;28;20110;-76
2021/10/10 12:21:13;;;;;;;5.97;3.33;;;;;;;;;;4997331;28;20117;-72
2021/10/10 12:23:40;;;;;;;5.10;2.67;;;;;;;;;;5022043;28;20480;-72
2021/10/10 12:26:06;;;;;;;3.80;2.90;;;;;;;;;;4981748;28;20037;-73
2021/10/10 12:28:33;;;;;;;4.55;3.30;;;;;;;;;;5014987;28;20467;-72
2021/10/10 12:30:59;;;;;;;3.58;3.28;;;;;;;;;;5006470;28;20488;-71
2021/10/10 12:33:29;;;;;;;4.03;2.97;;;;;;;;;;5021236;28;20080;-72
2021/10/10 12:36:03;;;;;;;4.03;3.08;;;;;;;;;;5014372;28;20464;-72
2021/10/10 12:38:36;;;;;;;5.03;3.22;;;;;;;;;;5016126;28;20032;-72
2021/10/10 12:41:25;;;;;;;4.65;3.17;;;;;;;;;;5033479;28;20498;-73
2021/10/10 12:43:52;;;;;;;4.45;2.90;;;;;;;;;;4990169;28;20034;-72
2021/10/10 12:46:19;;;;;;;4.53;3.10;;;;;;;;;;5019215;28;20014;-71
2021/10/10 12:49:01;;;;;;;5.32;2.90;;;;;;;;;;4996503;28;20053;-71
2021/10/10 12:51:26;;;;;;;3.97;3.15;;;;;;;;;;5008518;28;20013;-73
2021/10/10 12:54:07;;;;;;;5.07;3.03;;;;;;;;;;4991608;28;20430;-70
2021/10/10 12:56:32;;;;;;;3.88;3.22;;;;;;;;;;5011034;28;20202;-71
2021/10/10 12:58:58;;;;;;;4.40;3.50;;;;;;;;;;5013410;28;20021;-71
2021/10/10 13:01:25;;;;;;;3.58;3.00;;;;;;;;;;5012299;28;20061;-71
2021/10/10 13:03:50;;;;;;;4.65;3.35;;;;;;;;;;4992624;28;20041;-71
2021/10/10 13:06:18;;;;;;;3.40;3.10;;;;;;;;;;4972600;28;20053;-72
2021/10/10 13:08:48;;;;;;;3.40;3.10;;;;;;;;;;4994417;28;20021;-72
2021/10/10 13:11:14;;;;;;;5.43;3.53;;;;;;;;;;5012994;28;20021;-72
2021/10/10 13:13:40;;;;;;;3.85;2.60;;;;;;;;;;5012938;28;20025;-73
2021/10/10 13:16:05;;;;;;;6.53;3.38;;;;;;;;;;4993754;28;20026;-70
2021/10/10 13:18:30;;;;;;;5.90;3.33;;;;;;;;;;5015468;28;20048;-72
2021/10/10 13:20:55;;;;;;;3.80;3.40;;;;;;;;;;4994020;28;20029;-72
2021/10/10 13:23:21;;;;;;;3.53;3.23;;;;;;;;;;5013151;28;20457;-71
2021/10/10 13:25:46;;;;;;;4.30;3.10;;;;;;;;;;4993089;28;20030;-72
2021/10/10 13:28:11;;;;;;;4.30;3.50;;;;;;;;;;4993032;28;20387;-72
2021/10/10 13:30:37;;;;;;;4.27;3.03;;;;;;;;;;5012019;28;20319;-72
2021/10/10 13:33:02;;;;;;;5.95;3.17;;;;;;;;;;5013292;28;20095;-72
2021/10/10 13:35:27;;;;;;;4.57;3.00;;;;;;;;;;4989391;28;20105;-72
2021/10/10 13:37:52;;;;;;;5.03;3.10;;;;;;;;;;5021875;28;20075;-72
2021/10/10 13:40:18;;;;;;;3.73;3.33;;;;;;;;;;4993586;28;20526;-71
2021/10/10 13:42:43;;;;;;;4.35;3.17;;;;;;;;;;4996242;28;20285;-72
2021/10/10 13:45:08;;;;;;;4.23;2.97;;;;;;;;;;4979884;28;20022;-71
2021/10/10 13:47:34;;;;;;;4.25;3.10;;;;;;;;;;4995443;28;20022;-71
2021/10/10 13:50:00;;;;;;;6.50;3.30;;;;;;;;;;4999838;28;20500;-71
2021/10/10 13:52:25;;;;;;;3.92;3.55;;;;;;;;;;4993486;28;20034;-72
2021/10/10 13:54:50;;;;;;;4.03;3.45;;;;;;;;;;5009729;28;20030;-71
2021/10/10 13:57:15;;;;;;;5.60;3.47;;;;;;;;;;5011090;28;20041;-71
2021/10/10 13:59:41;;;;;;;3.55;3.13;;;;;;;;;;5014593;28;20283;-72
2021/10/10 14:02:06;;;;;;;4.60;3.30;;;;;;;;;;4994578;28;20057;-72
2021/10/10 14:04:31;;;;;;;5.10;3.47;;;;;;;;;;5013958;28;20034;-73
2021/10/10 14:06:56;;;;;;;5.70;3.22;;;;;;;;;;5013005;28;20026;-72
2021/10/10 14:09:22;;;;;;;7.90;3.17;;;;;;;;;;5012089;28;20028;-71
2021/10/10 14:11:47;;;;;;;6.30;3.72;;;;;;;;;;5012527;28;20029;-73
2021/10/10 14:14:12;;;;;;;6.78;4.10;;;;;;;;;;5000332;28;20034;-73
2021/10/10 14:16:38;;;;;;;5.22;3.60;;;;;;;;;;4999262;28;20022;-72
2021/10/10 14:19:04;;;;;;;7.80;3.50;;;;;;;;;;5030623;28;20083;-72
2021/10/10 14:21:29;;;;;;;4.85;3.28;;;;;;;;;;5033224;28;20025;-73
2021/10/10 14:23:54;;;;;;;5.27;3.27;;;;;;;;;;5004919;28;20403;-75
2021/10/10 14:26:28;;;;;;;4.93;3.45;;;;;;;;;;5084461;27;20453;-59
2021/10/10 14:28:53;;;;;;;5.80;3.65;;;;;;;;;;5087994;28;20086;-57
2021/10/10 14:31:18;;;;;;;5.60;3.50;;;;;;;;;;5095458;28;20029;-57
2021/10/10 14:33:43;;;;;;;6.00;3.38;;;;;;;;;;5106342;28;20020;-57
2021/10/10 14:36:10;;;;;;;5.15;3.42;;;;;;;;;;5102384;28;20050;-59